Time;durP1;ratioP1;P1;durP2;ratioP2;P2;SDS_P1;SDS_P2;PMS_P1;PMS_P2;Temp;Humidity;BMP_temperature;BMP_pressure;BME280_temperature;BME280_humidity;BME280_pressure;Samples;Min_cycle;Max_cycle;Signal;HPM_P1;HPM_P2
2024/02/05 00:01:37;;;;;;;;;;;16.60;68.50;;;;;;5092452;28;19916;-77
2024/02/05 00:04:02;;;;;;;;;;;16.50;68.60;;;;;;5092522;28;19954;-77
2024/02/05 00:06:28;;;;;;;;;;;16.50;68.70;;;;;;5092467;28;19908;-77
2024/02/05 00:08:54;;;;;;;;;;;16.50;68.40;;;;;;5092495;28;20002;-77
2024/02/05 00:11:19;;;;;;;;;;;16.60;68.20;;;;;;5092459;28;19915;-76
2024/02/05 00:13:45;;;;;;;;;;;16.60;68.40;;;;;;5092775;28;19908;-76
2024/02/05 00:16:10;;;;;;;;;;;16.50;68.20;;;;;;5092447;28;20501;-77
2024/02/05 00:18:36;;;;;;;;;;;16.50;68.70;;;;;;5093003;28;19915;-77
2024/02/05 00:21:02;;;;;;;;;;;16.50;68.30;;;;;;5092380;28;19923;-77
2024/02/05 00:23:28;;;;;;;;;;;16.50;68.30;;;;;;5092542;28;20297;-76
2024/02/05 00:25:53;;;;;;;;;;;16.50;68.50;;;;;;5092438;28;19944;-76
2024/02/05 00:28:19;;;;;;;;;;;16.50;68.40;;;;;;5092361;28;20422;-76
2024/02/05 00:30:44;;;;;;;;;;;16.50;68.80;;;;;;5092375;28;19908;-76
2024/02/05 00:33:10;;;;;;;;;;;16.50;68.30;;;;;;5092734;28;20354;-76
2024/02/05 00:35:36;;;;;;;;;;;16.00;68.10;;;;;;5092205;28;20375;-77
2024/02/05 00:38:03;;;;;;;;;;;16.50;68.50;;;;;;5092320;28;19914;-76
2024/02/05 00:40:28;;;;;;;;;;;16.50;68.20;;;;;;5091996;28;19920;-77
2024/02/05 00:42:54;;;;;;;;;;;16.50;68.50;;;;;;5092166;28;19914;-77
2024/02/05 00:45:19;;;;;;;;;;;16.40;68.30;;;;;;5092175;28;19912;-76
2024/02/05 00:47:45;;;;;;;;;;;16.40;67.80;;;;;;5091435;28;19978;-77
2024/02/05 00:50:10;;;;;;;;;;;16.40;68.00;;;;;;5092717;28;19920;-77
2024/02/05 00:52:36;;;;;;;;;;;16.40;68.30;;;;;;5095972;28;19908;-76
2024/02/05 00:55:01;;;;;;;;;;;16.40;68.40;;;;;;5095951;28;20015;-76
2024/02/05 00:57:29;;;;;;;;;;;16.40;68.30;;;;;;5095916;28;19908;-77
2024/02/05 00:59:55;;;;;;;;;;;16.40;68.70;;;;;;5095875;28;19947;-77
2024/02/05 01:02:20;;;;;;;;;;;16.40;68.30;;;;;;5095672;28;19970;-77
2024/02/05 01:04:46;;;;;;;;;;;16.30;68.30;;;;;;5095945;28;20419;-76
2024/02/05 01:07:12;;;;;;;;;;;16.40;68.30;;;;;;5095721;28;19916;-76
2024/02/05 01:09:37;;;;;;;;;;;16.40;68.20;;;;;;5095667;28;19915;-77
2024/02/05 01:12:03;;;;;;;;;;;16.30;68.30;;;;;;5095657;28;19915;-77
2024/02/05 01:14:29;;;;;;;;;;;16.30;66.90;;;;;;5095580;28;19914;-76
2024/02/05 01:16:55;;;;;;;;;;;16.40;68.30;;;;;;5095526;28;19908;-76
2024/02/05 01:19:21;;;;;;;;;;;16.30;68.10;;;;;;5095435;28;20536;-76
2024/02/05 01:21:46;;;;;;;;;;;16.30;68.30;;;;;;5095201;28;19978;-77
2024/02/05 01:24:12;;;;;;;;;;;16.30;68.10;;;;;;5095271;28;19987;-76
2024/02/05 01:26:38;;;;;;;;;;;16.30;68.00;;;;;;5095513;28;19965;-76
2024/02/05 01:29:06;;;;;;;;;;;16.30;68.10;;;;;;5095116;28;19981;-76
2024/02/05 01:31:32;;;;;;;;;;;16.30;67.90;;;;;;5095329;28;19908;-76
2024/02/05 01:33:59;;;;;;;;;;;16.30;67.80;;;;;;5095816;28;19908;-76
2024/02/05 01:36:25;;;;;;;;;;;16.30;68.00;;;;;;5094995;28;20362;-76
2024/02/05 01:38:50;;;;;;;;;;;16.20;68.00;;;;;;5094941;28;19912;-76
2024/02/05 01:41:16;;;;;;;;;;;16.20;67.90;;;;;;5094755;28;19927;-77
2024/02/05 01:43:42;;;;;;;;;;;16.20;68.00;;;;;;5094891;28;19908;-76
2024/02/05 01:46:12;;;;;;;;;;;16.20;67.80;;;;;;5094931;28;20290;-77
2024/02/05 01:48:38;;;;;;;;;;;15.60;67.50;;;;;;5094910;28;19931;-76
2024/02/05 01:51:05;;;;;;;;;;;16.20;67.40;;;;;;5094755;28;20399;-76
2024/02/05 01:53:32;;;;;;;;;;;16.20;67.60;;;;;;5094903;28;20286;-77
2024/02/05 01:55:57;;;;;;;;;;;16.30;68.20;;;;;;5094781;28;20363;-77
2024/02/05 01:58:23;;;;;;;;;;;16.20;68.00;;;;;;5094733;28;19961;-77
2024/02/05 02:00:48;;;;;;;;;;;16.20;67.80;;;;;;5094706;28;20277;-77
2024/02/05 02:03:14;;;;;;;;;;;16.10;68.70;;;;;;5094486;28;19912;-76
2024/02/05 02:05:40;;;;;;;;;;;16.20;68.00;;;;;;5094569;28;19908;-77
2024/02/05 02:08:06;;;;;;;;;;;16.10;68.20;;;;;;5094550;28;19908;-76
2024/02/05 02:10:32;;;;;;;;;;;16.10;67.60;;;;;;5094508;28;19931;-77
2024/02/05 02:12:58;;;;;;;;;;;16.10;68.10;;;;;;5094464;28;20374;-76
2024/02/05 02:15:23;;;;;;;;;;;16.10;68.30;;;;;;5094484;28;19955;-76
2024/02/05 02:17:50;;;;;;;;;;;16.20;68.20;;;;;;5094377;28;19916;-76
2024/02/05 02:20:18;;;;;;;;;;;16.20;68.60;;;;;;5094278;28;19909;-77
2024/02/05 02:22:43;;;;;;;;;;;16.10;68.50;;;;;;5094491;28;20263;-76
2024/02/05 02:25:09;;;;;;;;;;;16.20;68.20;;;;;;5092858;28;19914;-76
2024/02/05 02:27:37;;;;;;;;;;;16.10;68.40;;;;;;5094553;28;19999;-76
2024/02/05 02:30:07;;;;;;;;;;;16.20;68.60;;;;;;5094626;28;20359;-77
2024/02/05 02:32:40;;;;;;;;;;;16.10;63.50;;;;;;5094102;28;19961;-76
2024/02/05 02:35:15;;;;;;;;;;;16.10;64.00;;;;;;5094271;28;20392;-77
2024/02/05 02:37:46;;;;;;;;;;;16.20;64.00;;;;;;5094082;28;19965;-77
2024/02/05 02:40:13;;;;;;;;;;;16.10;68.70;;;;;;5093761;28;19920;-76
2024/02/05 02:42:40;;;;;;;;;;;16.20;68.50;;;;;;5093865;28;20396;-76
2024/02/05 02:45:07;;;;;;;;;;;16.20;68.40;;;;;;5093865;28;20038;-77
2024/02/05 02:47:33;;;;;;;;;;;16.10;66.60;;;;;;5093733;28;20316;-76
2024/02/05 02:49:58;;;;;;;;;;;16.10;67.80;;;;;;5093919;28;19962;-77
2024/02/05 02:52:24;;;;;;;;;;;16.10;68.40;;;;;;5093749;28;19908;-76
2024/02/05 02:54:49;;;;;;;;;;;16.20;68.30;;;;;;5093611;28;20398;-76
2024/02/05 02:57:15;;;;;;;;;;;16.00;68.10;;;;;;5093646;28;19908;-77
2024/02/05 02:59:41;;;;;;;;;;;16.10;68.00;;;;;;5094307;28;20358;-76
2024/02/05 03:02:06;;;;;;;;;;;16.10;68.10;;;;;;5093468;28;20002;-76
2024/02/05 03:04:32;;;;;;;;;;;16.10;68.40;;;;;;5093423;28;19908;-76
2024/02/05 03:06:57;;;;;;;;;;;16.00;68.20;;;;;;5093692;28;19915;-76
2024/02/05 03:09:23;;;;;;;;;;;16.10;68.30;;;;;;5093266;28;19908;-76
2024/02/05 03:11:49;;;;;;;;;;;16.10;68.30;;;;;;5093622;28;19908;-76
2024/02/05 03:14:14;;;;;;;;;;;16.00;68.30;;;;;;5093194;28;20003;-76
2024/02/05 03:16:40;;;;;;;;;;;16.00;68.00;;;;;;5093173;28;19970;-76
2024/02/05 03:19:05;;;;;;;;;;;16.00;68.20;;;;;;5093096;28;19931;-77
2024/02/05 03:21:31;;;;;;;;;;;16.00;68.90;;;;;;5093021;28;19923;-77
2024/02/05 03:23:56;;;;;;;;;;;16.00;68.10;;;;;;5093187;28;19908;-76
2024/02/05 03:26:23;;;;;;;;;;;16.00;68.20;;;;;;5093088;28;19958;-76
2024/02/05 03:28:48;;;;;;;;;;;16.00;67.70;;;;;;5093545;28;20302;-76
2024/02/05 03:31:14;;;;;;;;;;;16.10;68.10;;;;;;5092941;28;19908;-76
2024/02/05 03:33:39;;;;;;;;;;;16.00;68.10;;;;;;5093019;28;19908;-76
2024/02/05 03:36:05;;;;;;;;;;;16.00;68.10;;;;;;5093139;28;19915;-76
2024/02/05 03:38:30;;;;;;;;;;;15.90;67.90;;;;;;5092917;28;19912;-76
2024/02/05 03:40:56;;;;;;;;;;;16.00;68.30;;;;;;5092733;28;20290;-71
2024/02/05 03:43:22;;;;;;;;;;;15.90;68.00;;;;;;5093032;28;19908;-71
2024/02/05 03:45:49;;;;;;;;;;;15.90;65.70;;;;;;5092201;28;20212;-70
2024/02/05 03:48:15;;;;;;;;;;;15.90;68.20;;;;;;5092612;28;19911;-71
2024/02/05 03:50:40;;;;;;;;;;;15.90;67.60;;;;;;5092499;28;19918;-71
2024/02/05 03:53:06;;;;;;;;;;;15.90;68.20;;;;;;5092782;28;19954;-71
2024/02/05 03:55:31;;;;;;;;;;;15.90;68.20;;;;;;5093128;28;19912;-71
2024/02/05 03:57:58;;;;;;;;;;;15.90;68.20;;;;;;5092625;28;19919;-71
2024/02/05 04:00:23;;;;;;;;;;;16.00;68.90;;;;;;5092592;28;19908;-71
2024/02/05 04:02:49;;;;;;;;;;;15.90;68.10;;;;;;5092397;28;19961;-71
2024/02/05 04:05:14;;;;;;;;;;;15.80;68.10;;;;;;5092398;28;19908;-71
2024/02/05 04:07:40;;;;;;;;;;;15.90;68.10;;;;;;5092408;28;19953;-71
2024/02/05 04:10:06;;;;;;;;;;;15.90;68.20;;;;;;5092311;28;19908;-70
2024/02/05 04:12:32;;;;;;;;;;;15.80;66.90;;;;;;5092210;28;19915;-71
2024/02/05 04:14:57;;;;;;;;;;;15.80;68.20;;;;;;5092194;28;20480;-71
2024/02/05 04:17:24;;;;;;;;;;;15.90;68.30;;;;;;5092594;28;20002;-70
2024/02/05 04:19:50;;;;;;;;;;;15.90;68.30;;;;;;5092565;28;20042;-71
2024/02/05 04:22:16;;;;;;;;;;;15.90;68.50;;;;;;5092201;28;19923;-71
2024/02/05 04:24:41;;;;;;;;;;;15.80;68.30;;;;;;5092674;28;19908;-71
2024/02/05 04:27:07;;;;;;;;;;;15.80;68.20;;;;;;5096359;28;19919;-70
2024/02/05 04:29:35;;;;;;;;;;;15.80;68.30;;;;;;5096324;28;20421;-71
2024/02/05 04:32:01;;;;;;;;;;;15.80;63.80;;;;;;5096311;28;20378;-71
2024/02/05 04:34:28;;;;;;;;;;;15.80;68.30;;;;;;5096534;28;19915;-71
2024/02/05 04:36:53;;;;;;;;;;;15.90;68.30;;;;;;5096363;28;20011;-71
2024/02/05 04:39:19;;;;;;;;;;;15.80;68.30;;;;;;5096131;28;19966;-71
2024/02/05 04:41:45;;;;;;;;;;;15.90;68.90;;;;;;5096348;28;19920;-71
2024/02/05 04:44:11;;;;;;;;;;;16.00;68.90;;;;;;5096083;28;19952;-71
2024/02/05 04:46:36;;;;;;;;;;;15.80;68.00;;;;;;5096118;28;20004;-71
2024/02/05 04:49:02;;;;;;;;;;;15.90;67.90;;;;;;5096067;28;19908;-71
2024/02/05 04:51:27;;;;;;;;;;;15.90;68.30;;;;;;5095978;28;20285;-71
2024/02/05 04:53:54;;;;;;;;;;;15.80;68.10;;;;;;5096665;28;19914;-71
2024/02/05 04:56:19;;;;;;;;;;;15.80;68.40;;;;;;5095965;28;20290;-71
2024/02/05 04:58:45;;;;;;;;;;;15.90;68.30;;;;;;5095803;28;19927;-71
2024/02/05 05:06:52;;;;;;;;;;;15.90;63.70;;;;;;5022347;28;19925;-76
2024/02/05 05:09:17;;;;;;;;;;;15.90;63.80;;;;;;5015728;28;19944;-74
2024/02/05 05:11:43;;;;;;;;;;;15.80;68.10;;;;;;5015646;28;19909;-74
2024/02/05 05:14:08;;;;;;;;;;;15.80;68.00;;;;;;5015585;28;19910;-74
2024/02/05 05:16:34;;;;;;;;;;;15.90;68.20;;;;;;5015585;28;19917;-76
2024/02/05 05:19:01;;;;;;;;;;;15.80;68.00;;;;;;5015580;28;19916;-74
2024/02/05 05:21:27;;;;;;;;;;;15.90;68.00;;;;;;5015695;28;20012;-74
2024/02/05 05:23:52;;;;;;;;;;;16.00;68.50;;;;;;5015410;28;19979;-74
2024/02/05 05:26:21;;;;;;;;;;;15.80;68.00;;;;;;5015679;28;19910;-74
2024/02/05 05:28:48;;;;;;;;;;;15.70;68.20;;;;;;5015541;28;19913;-74
2024/02/05 05:31:16;;;;;;;;;;;15.80;68.20;;;;;;5015578;28;19941;-75
2024/02/05 05:33:45;;;;;;;;;;;15.80;68.00;;;;;;5015264;28;19913;-74
2024/02/05 05:36:11;;;;;;;;;;;15.80;68.10;;;;;;5015343;28;19956;-76
2024/02/05 05:38:37;;;;;;;;;;;15.80;68.20;;;;;;5014529;28;19910;-76
2024/02/05 05:41:03;;;;;;;;;;;15.90;68.10;;;;;;5015353;28;20015;-76
2024/02/05 05:43:30;;;;;;;;;;;15.90;67.50;;;;;;5015437;28;19960;-76
2024/02/05 05:45:56;;;;;;;;;;;15.80;68.20;;;;;;5015419;28;19918;-76
2024/02/05 05:48:22;;;;;;;;;;;15.90;67.60;;;;;;5015427;28;20433;-76
2024/02/05 05:50:48;;;;;;;;;;;15.90;67.90;;;;;;5015286;28;19920;-76
2024/02/05 05:53:14;;;;;;;;;;;17.10;68.80;;;;;;5015187;28;19956;-76
2024/02/05 05:55:41;;;;;;;;;;;15.80;67.90;;;;;;5014918;28;19996;-76
2024/02/05 05:58:07;;;;;;;;;;;15.80;67.90;;;;;;5014845;28;19916;-76
2024/02/05 06:00:32;;;;;;;;;;;15.80;67.90;;;;;;5014760;28;19909;-76
2024/02/05 06:02:58;;;;;;;;;;;15.80;67.30;;;;;;5014352;28;20016;-76
2024/02/05 06:05:23;;;;;;;;;;;15.80;67.70;;;;;;5015396;28;19910;-76
2024/02/05 06:07:49;;;;;;;;;;;15.80;68.10;;;;;;5014505;28;19909;-76
2024/02/05 06:10:14;;;;;;;;;;;15.80;67.90;;;;;;5014560;28;19953;-75
2024/02/05 06:12:40;;;;;;;;;;;15.80;67.30;;;;;;5014536;28;19909;-74
2024/02/05 06:15:07;;;;;;;;;;;15.80;68.00;;;;;;5016888;28;20363;-76
2024/02/05 06:17:33;;;;;;;;;;;15.60;66.50;;;;;;5016797;28;19909;-75
2024/02/05 06:19:58;;;;;;;;;;;15.80;67.60;;;;;;5014422;28;20000;-77
2024/02/05 06:22:24;;;;;;;;;;;15.90;67.90;;;;;;5014401;28;19917;-74
2024/02/05 06:24:49;;;;;;;;;;;15.80;67.70;;;;;;5014326;28;19917;-80
2024/02/05 06:27:15;;;;;;;;;;;15.80;67.80;;;;;;5014245;28;20264;-76
2024/02/05 06:29:40;;;;;;;;;;;15.80;67.80;;;;;;5014338;28;19910;-73
2024/02/05 06:32:06;;;;;;;;;;;15.70;67.60;;;;;;5015743;28;20433;-75
2024/02/05 06:34:33;;;;;;;;;;;15.70;67.50;;;;;;5014399;28;19988;-76
2024/02/05 06:36:59;;;;;;;;;;;15.80;67.80;;;;;;5014029;28;19971;-77
2024/02/05 06:39:25;;;;;;;;;;;15.70;67.80;;;;;;5014354;28;20098;-76
2024/02/05 06:41:51;;;;;;;;;;;15.80;67.60;;;;;;5014234;28;20040;-76
2024/02/05 06:44:17;;;;;;;;;;;15.80;67.80;;;;;;5014218;28;19916;-77
2024/02/05 06:46:43;;;;;;;;;;;15.90;67.60;;;;;;5013929;28;20003;-76
2024/02/05 06:49:09;;;;;;;;;;;15.70;67.90;;;;;;5013247;28;19910;-76
2024/02/05 06:51:34;;;;;;;;;;;15.70;67.80;;;;;;5013534;28;20358;-76
2024/02/05 06:54:00;;;;;;;;;;;15.70;67.80;;;;;;5013787;28;19909;-76
2024/02/05 06:56:25;;;;;;;;;;;15.80;67.90;;;;;;5013825;28;19917;-76
2024/02/05 06:58:51;;;;;;;;;;;15.70;67.60;;;;;;5013717;28;19952;-76
2024/02/05 07:01:16;;;;;;;;;;;15.70;67.90;;;;;;5014120;28;19924;-76
2024/02/05 07:03:42;;;;;;;;;;;15.70;67.40;;;;;;5012213;28;20366;-76
2024/02/05 07:06:07;;;;;;;;;;;15.70;67.50;;;;;;5013575;28;19932;-76
2024/02/05 07:08:33;;;;;;;;;;;15.90;68.00;;;;;;5013661;28;19910;-76
2024/02/05 07:10:58;;;;;;;;;;;15.60;67.70;;;;;;5012321;28;20371;-76
2024/02/05 07:13:24;;;;;;;;;;;15.70;67.50;;;;;;5013810;28;20374;-76
2024/02/05 07:15:50;;;;;;;;;;;15.60;67.20;;;;;;5013700;28;19979;-76
2024/02/05 07:18:16;;;;;;;;;;;15.70;67.80;;;;;;5013255;28;20011;-76
2024/02/05 07:20:42;;;;;;;;;;;15.60;67.60;;;;;;5013636;28;19996;-76
2024/02/05 07:23:08;;;;;;;;;;;15.60;67.70;;;;;;5013479;28;19999;-76
2024/02/05 07:25:39;;;;;;;;;;;15.70;67.90;;;;;;5013159;28;19915;-76
2024/02/05 07:28:05;;;;;;;;;;;15.60;67.70;;;;;;5014405;28;19936;-74
2024/02/05 07:30:32;;;;;;;;;;;15.70;67.00;;;;;;5017914;28;19910;-75
2024/02/05 07:32:58;;;;;;;;;;;15.70;67.20;;;;;;5014525;28;20040;-75
2024/02/05 07:35:24;;;;;;;;;;;15.60;67.80;;;;;;5013306;28;19917;-73
2024/02/05 07:37:50;;;;;;;;;;;15.60;67.70;;;;;;5012935;28;19910;-81
2024/02/05 07:40:15;;;;;;;;;;;15.70;67.90;;;;;;5013009;28;20356;-80
2024/02/05 07:42:41;;;;;;;;;;;15.70;67.50;;;;;;5011598;28;19922;-77
2024/02/05 07:45:07;;;;;;;;;;;15.60;67.80;;;;;;5011710;28;19921;-77
2024/02/05 07:47:32;;;;;;;;;;;15.60;67.40;;;;;;5011486;28;20375;-78
2024/02/05 07:49:58;;;;;;;;;;;15.80;68.40;;;;;;5011600;28;19914;-78
2024/02/05 07:52:25;;;;;;;;;;;15.60;68.40;;;;;;5011755;28;19913;-79
2024/02/05 07:54:51;;;;;;;;;;;15.60;68.40;;;;;;5011550;28;19913;-80
2024/02/05 07:57:18;;;;;;;;;;;15.70;68.50;;;;;;5012681;28;19922;-74
2024/02/05 07:59:44;;;;;;;;;;;15.50;68.20;;;;;;5011866;28;19965;-74
2024/02/05 08:02:10;;;;;;;;;;;15.70;68.00;;;;;;5012311;28;20026;-75
2024/02/05 08:04:35;;;;;;;;;;;15.70;68.30;;;;;;5012432;28;20004;-74
2024/02/05 08:07:04;;;;;;;;;;;15.60;68.10;;;;;;5011286;28;20008;-74
2024/02/05 08:09:30;;;;;;;;;;;15.70;68.20;;;;;;5012720;28;19917;-73
2024/02/05 08:11:55;;;;;;;;;;;15.70;68.40;;;;;;5012641;28;20318;-75
2024/02/05 08:14:21;;;;;;;;;;;15.80;68.40;;;;;;5012327;28;19917;-75
2024/02/05 08:16:47;;;;;;;;;;;15.70;68.40;;;;;;5012777;28;19928;-75
2024/02/05 08:19:13;;;;;;;;;;;15.70;68.40;;;;;;5011515;28;19960;-75
2024/02/05 08:21:39;;;;;;;;;;;15.70;67.90;;;;;;5011111;28;20319;-75
2024/02/05 08:24:05;;;;;;;;;;;15.70;68.50;;;;;;5011982;28;20272;-75
2024/02/05 08:26:31;;;;;;;;;;;15.80;67.10;;;;;;5011068;28;19928;-75
2024/02/05 08:28:56;;;;;;;;;;;15.70;68.00;;;;;;5011367;28;19914;-75
2024/02/05 08:31:22;;;;;;;;;;;15.70;68.10;;;;;;5011019;28;19913;-75
2024/02/05 08:33:48;;;;;;;;;;;15.80;68.00;;;;;;5010894;28;19921;-74
2024/02/05 08:36:14;;;;;;;;;;;16.00;68.10;;;;;;5010960;28;19913;-75
2024/02/05 08:38:39;;;;;;;;;;;15.70;68.10;;;;;;5011038;28;19913;-75
2024/02/05 08:41:05;;;;;;;;;;;15.80;67.90;;;;;;5010798;28;19921;-75
2024/02/05 08:43:30;;;;;;;;;;;15.80;67.70;;;;;;5012087;28;19922;-75
2024/02/05 08:45:56;;;;;;;;;;;15.70;67.60;;;;;;5010843;28;19918;-75
2024/02/05 08:48:21;;;;;;;;;;;15.70;67.80;;;;;;5010868;28;19914;-74
2024/02/05 08:50:47;;;;;;;;;;;15.80;67.60;;;;;;5010870;28;19921;-76
2024/02/05 08:53:12;;;;;;;;;;;15.80;67.90;;;;;;5011402;28;19913;-72
2024/02/05 08:55:38;;;;;;;;;;;15.80;67.70;;;;;;5010726;28;20410;-73
2024/02/05 08:58:04;;;;;;;;;;;15.80;67.80;;;;;;5011158;28;19917;-72
2024/02/05 09:00:30;;;;;;;;;;;15.80;67.90;;;;;;5012028;28;19921;-74
2024/02/05 09:02:55;;;;;;;;;;;15.80;67.40;;;;;;5010477;28;19943;-75
2024/02/05 09:05:21;;;;;;;;;;;15.80;68.00;;;;;;5014222;28;19929;-74
2024/02/05 09:07:47;;;;;;;;;;;15.80;67.10;;;;;;5014950;28;19910;-75
2024/02/05 09:10:13;;;;;;;;;;;15.70;67.50;;;;;;5012016;28;19917;-74
2024/02/05 09:12:38;;;;;;;;;;;15.80;67.70;;;;;;5014821;28;20279;-73
2024/02/05 09:15:04;;;;;;;;;;;15.80;67.60;;;;;;5015550;28;20012;-77
2024/02/05 09:17:30;;;;;;;;;;;16.00;66.90;;;;;;5015689;28;19921;-77
2024/02/05 09:19:56;;;;;;;;;;;15.90;67.70;;;;;;5015520;28;19913;-76
2024/02/05 09:22:21;;;;;;;;;;;15.80;67.70;;;;;;5016080;28;19925;-77
2024/02/05 09:24:47;;;;;;;;;;;15.80;67.50;;;;;;5015458;28;20291;-74
2024/02/05 09:27:13;;;;;;;;;;;15.80;67.60;;;;;;5015489;28;20287;-75
2024/02/05 09:29:38;;;;;;;;;;;15.80;67.70;;;;;;5015229;28;19916;-74
2024/02/05 09:32:06;;;;;;;;;;;15.90;67.40;;;;;;5015345;28;19960;-74
2024/02/05 09:34:35;;;;;;;;;;;16.10;64.80;;;;;;5015246;28;19953;-73
2024/02/05 09:37:01;;;;;;;;;;;15.90;67.70;;;;;;5015206;28;19909;-74
2024/02/05 09:39:27;;;;;;;;;;;15.80;67.30;;;;;;5014976;28;19913;-73
2024/02/05 09:41:53;;;;;;;;;;;15.90;67.60;;;;;;5014534;28;20011;-73
2024/02/05 09:44:19;;;;;;;;;;;15.90;67.40;;;;;;5015057;28;19910;-74
2024/02/05 09:46:49;;;;;;;;;;;15.90;67.50;;;;;;5014938;28;19910;-74
2024/02/05 09:49:14;;;;;;;;;;;15.90;67.50;;;;;;5013449;28;19920;-71
2024/02/05 09:51:40;;;;;;;;;;;15.90;67.50;;;;;;5014171;28;19914;-74
2024/02/05 09:54:06;;;;;;;;;;;15.90;67.30;;;;;;5014816;28;19913;-73
2024/02/05 09:56:33;;;;;;;;;;;15.90;67.40;;;;;;5014851;28;20000;-73
2024/02/05 09:58:59;;;;;;;;;;;15.90;67.40;;;;;;5014785;28;19932;-73
2024/02/05 10:01:25;;;;;;;;;;;15.90;66.70;;;;;;5014294;28;20383;-73
2024/02/05 10:03:53;;;;;;;;;;;15.90;67.30;;;;;;5013896;28;19929;-73
2024/02/05 10:06:20;;;;;;;;;;;15.90;67.20;;;;;;5013375;28;19913;-73
2024/02/05 10:08:47;;;;;;;;;;;15.90;67.30;;;;;;5014519;28;19921;-74
2024/02/05 10:11:15;;;;;;;;;;;14.80;66.70;;;;;;5014537;28;19916;-74
2024/02/05 10:13:41;;;;;;;;;;;15.90;67.10;;;;;;5014823;28;19914;-73
2024/02/05 10:16:07;;;;;;;;;;;15.90;67.20;;;;;;5014672;28;19910;-73
2024/02/05 10:18:32;;;;;;;;;;;15.90;67.00;;;;;;5014871;28;20335;-73
2024/02/05 10:21:00;;;;;;;;;;;15.90;66.80;;;;;;5014252;28;19956;-74
2024/02/05 10:23:26;;;;;;;;;;;15.90;67.30;;;;;;5013703;28;19920;-74
2024/02/05 10:25:55;;;;;;;;;;;15.90;67.00;;;;;;5014289;28;19910;-73
2024/02/05 10:28:21;;;;;;;;;;;15.90;67.50;;;;;;5014337;28;19913;-73
2024/02/05 10:30:47;;;;;;;;;;;15.80;67.00;;;;;;5014242;28;19909;-74
2024/02/05 10:33:15;;;;;;;;;;;15.80;67.00;;;;;;5014098;28;19917;-72
2024/02/05 10:35:41;;;;;;;;;;;15.90;67.30;;;;;;5012866;28;19949;-73
2024/02/05 10:38:08;;;;;;;;;;;15.90;67.00;;;;;;5014059;28;19910;-73
2024/02/05 10:40:34;;;;;;;;;;;15.90;66.90;;;;;;5014374;28;19996;-72
2024/02/05 10:43:00;;;;;;;;;;;15.90;67.30;;;;;;5013786;28;20450;-73
2024/02/05 10:45:28;;;;;;;;;;;14.90;66.60;;;;;;5013839;28;19976;-73
2024/02/05 10:47:54;;;;;;;;;;;15.80;67.40;;;;;;5013839;28;19909;-73
2024/02/05 10:50:20;;;;;;;;;;;15.90;67.60;;;;;;5013929;28;19917;-73
2024/02/05 10:52:46;;;;;;;;;;;15.90;67.50;;;;;;5013841;28;20464;-73
2024/02/05 10:55:12;;;;;;;;;;;15.90;67.10;;;;;;5014028;28;19910;-73
2024/02/05 10:57:38;;;;;;;;;;;15.90;67.40;;;;;;5013743;28;19910;-76
2024/02/05 11:00:05;;;;;;;;;;;16.00;67.30;;;;;;5013706;28;19932;-73
2024/02/05 11:02:40;;;;;;;;;;;16.00;66.80;;;;;;5013299;28;19925;-72
2024/02/05 11:05:05;;;;;;;;;;;15.90;63.00;;;;;;5014082;28;19921;-74
2024/02/05 11:07:36;;;;;;;;;;;15.90;66.60;;;;;;5013574;28;19909;-73
2024/02/05 11:10:04;;;;;;;;;;;16.00;62.90;;;;;;5013407;28;19965;-75
2024/02/05 11:12:31;;;;;;;;;;;16.00;67.10;;;;;;5013482;28;19917;-73
2024/02/05 11:15:02;;;;;;;;;;;16.00;67.30;;;;;;5013355;28;19963;-72
2024/02/05 11:17:28;;;;;;;;;;;16.00;67.50;;;;;;5013409;28;19910;-73
2024/02/05 11:19:54;;;;;;;;;;;16.00;67.30;;;;;;5013244;28;20341;-73
2024/02/05 11:22:20;;;;;;;;;;;16.10;67.40;;;;;;5013447;28;20295;-72
2024/02/05 11:24:46;;;;;;;;;;;16.20;67.10;;;;;;5013135;28;19913;-72
2024/02/05 11:27:11;;;;;;;;;;;16.10;66.90;;;;;;5013051;28;20360;-73
2024/02/05 11:29:41;;;;;;;;;;;16.10;67.10;;;;;;5012584;28;19916;-74
2024/02/05 11:32:06;;;;;;;;;;;16.20;67.00;;;;;;5012966;28;19909;-74
2024/02/05 11:34:35;;;;;;;;;;;16.20;66.60;;;;;;5012734;28;19916;-73
2024/02/05 11:37:03;;;;;;;;;;;16.10;62.40;;;;;;5012895;28;19909;-73
2024/02/05 11:39:29;;;;;;;;;;;16.20;66.90;;;;;;5012781;28;19988;-72
2024/02/05 11:42:05;;;;;;;;;;;16.20;66.80;;;;;;5012845;28;20020;-73
2024/02/05 11:44:31;;;;;;;;;;;16.20;66.80;;;;;;5012974;28;19979;-73
2024/02/05 11:46:56;;;;;;;;;;;16.30;67.10;;;;;;5013002;28;20380;-75
2024/02/05 11:49:29;;;;;;;;;;;16.30;66.70;;;;;;5013215;28;19910;-72
2024/02/05 11:51:54;;;;;;;;;;;16.40;66.70;;;;;;5011105;28;19910;-73
2024/02/05 11:54:21;;;;;;;;;;;16.30;66.80;;;;;;5012552;28;19956;-72
2024/02/05 11:56:46;;;;;;;;;;;16.40;66.90;;;;;;5012833;28;20277;-73
2024/02/05 11:59:11;;;;;;;;;;;16.30;66.90;;;;;;5012677;28;19915;-72
2024/02/05 12:01:37;;;;;;;;;;;16.30;66.20;;;;;;5012686;28;19925;-74
2024/02/05 12:04:03;;;;;;;;;;;16.30;66.90;;;;;;5012742;28;19956;-71
2024/02/05 12:06:29;;;;;;;;;;;16.50;66.50;;;;;;5012643;28;19914;-73
2024/02/05 12:08:55;;;;;;;;;;;16.30;67.10;;;;;;5012585;28;19909;-71
2024/02/05 12:11:21;;;;;;;;;;;16.20;66.90;;;;;;5012844;28;19932;-72
2024/02/05 12:13:55;;;;;;;;;;;16.30;66.90;;;;;;5012575;28;20360;-72
2024/02/05 12:16:24;;;;;;;;;;;16.30;67.40;;;;;;5012349;28;19909;-72
2024/02/05 12:18:56;;;;;;;;;;;16.20;67.20;;;;;;5012520;28;19909;-72
2024/02/05 12:21:22;;;;;;;;;;;16.30;62.90;;;;;;5012401;28;19920;-73
2024/02/05 12:23:48;;;;;;;;;;;16.20;67.20;;;;;;5012481;28;20040;-72
2024/02/05 12:26:13;;;;;;;;;;;16.30;67.40;;;;;;5012490;28;19980;-72
2024/02/05 12:28:39;;;;;;;;;;;16.30;67.40;;;;;;5012097;28;19909;-72
2024/02/05 12:31:05;;;;;;;;;;;16.20;67.40;;;;;;5012925;28;20342;-72
2024/02/05 12:33:30;;;;;;;;;;;16.20;67.40;;;;;;5012367;28;19909;-72
2024/02/05 12:35:57;;;;;;;;;;;16.30;67.30;;;;;;5012444;28;19932;-72
2024/02/05 12:38:23;;;;;;;;;;;16.20;67.20;;;;;;5012386;28;20000;-73
2024/02/05 12:40:49;;;;;;;;;;;16.20;67.30;;;;;;5011789;28;19944;-73
2024/02/05 12:43:15;;;;;;;;;;;16.20;67.00;;;;;;5011816;28;19917;-72
2024/02/05 12:45:40;;;;;;;;;;;16.20;66.90;;;;;;5012102;28;19984;-72
2024/02/05 12:48:06;;;;;;;;;;;16.00;67.30;;;;;;5015929;28;19910;-72
2024/02/05 12:50:32;;;;;;;;;;;16.20;67.00;;;;;;5014967;28;20004;-72
2024/02/05 12:52:57;;;;;;;;;;;16.10;67.20;;;;;;5015155;28;19909;-72
2024/02/05 12:55:24;;;;;;;;;;;16.20;67.20;;;;;;5016034;28;20330;-72
2024/02/05 12:57:50;;;;;;;;;;;16.20;67.60;;;;;;5016026;28;19910;-72
2024/02/05 13:00:16;;;;;;;;;;;16.20;67.50;;;;;;5015907;28;19914;-73
2024/02/05 13:02:42;;;;;;;;;;;16.50;67.00;;;;;;5014714;28;19921;-73
2024/02/05 13:05:08;;;;;;;;;;;16.30;67.00;;;;;;5015813;28;19941;-73
2024/02/05 13:07:33;;;;;;;;;;;16.30;66.40;;;;;;5015258;28;19916;-73
2024/02/05 13:10:00;;;;;;;;;;;16.30;66.90;;;;;;5015489;28;19917;-72
2024/02/05 13:12:25;;;;;;;;;;;16.20;67.20;;;;;;5015130;28;19956;-72
2024/02/05 13:14:51;;;;;;;;;;;16.20;67.10;;;;;;5015503;28;20376;-72
2024/02/05 13:17:17;;;;;;;;;;;16.20;67.00;;;;;;5015292;28;20360;-72
2024/02/05 13:19:42;;;;;;;;;;;16.20;67.10;;;;;;5015037;28;20418;-72
2024/02/05 13:22:09;;;;;;;;;;;16.30;67.00;;;;;;5015336;28;19921;-73
2024/02/05 13:24:35;;;;;;;;;;;16.30;67.10;;;;;;5014197;28;20407;-73
2024/02/05 13:27:00;;;;;;;;;;;16.30;66.50;;;;;;5015503;28;19950;-73
2024/02/05 13:29:26;;;;;;;;;;;16.30;67.10;;;;;;5015419;28;19917;-73
2024/02/05 13:31:52;;;;;;;;;;;16.20;67.20;;;;;;5015226;28;19949;-73
2024/02/05 13:34:20;;;;;;;;;;;16.30;67.90;;;;;;5015157;28;19913;-74
2024/02/05 13:36:46;;;;;;;;;;;16.30;66.80;;;;;;5015247;28;20511;-73
2024/02/05 13:39:12;;;;;;;;;;;16.40;66.70;;;;;;5015050;28;20004;-73
2024/02/05 13:41:38;;;;;;;;;;;16.30;66.90;;;;;;5014837;28;19980;-72
2024/02/05 13:44:04;;;;;;;;;;;16.20;66.80;;;;;;5014671;28;19913;-73
2024/02/05 13:46:30;;;;;;;;;;;16.40;66.80;;;;;;5015066;28;19910;-73
2024/02/05 13:48:56;;;;;;;;;;;16.30;66.90;;;;;;5015107;28;20318;-73
2024/02/05 13:51:21;;;;;;;;;;;16.30;67.10;;;;;;5015007;28;19909;-74
2024/02/05 13:53:47;;;;;;;;;;;16.30;67.00;;;;;;5014846;28;20293;-73
2024/02/05 13:56:13;;;;;;;;;;;16.40;66.80;;;;;;5014506;28;19910;-72
2024/02/05 13:58:38;;;;;;;;;;;16.30;66.90;;;;;;5013750;28;19916;-73
2024/02/05 14:01:04;;;;;;;;;;;16.30;66.80;;;;;;5014825;28;20016;-73
2024/02/05 14:03:30;;;;;;;;;;;16.30;66.70;;;;;;5014312;28;20008;-73
2024/02/05 14:05:56;;;;;;;;;;;16.50;67.20;;;;;;5015110;28;19924;-73
2024/02/05 14:08:22;;;;;;;;;;;16.30;66.90;;;;;;5014740;28;19972;-75
2024/02/05 14:10:49;;;;;;;;;;;16.30;67.40;;;;;;5014519;28;20426;-75
2024/02/05 14:13:15;;;;;;;;;;;16.20;66.80;;;;;;5014510;28;19964;-74
2024/02/05 14:15:40;;;;;;;;;;;16.30;66.90;;;;;;5014651;28;19910;-74